Aviation Digital Data Service (ADDS)

Output produced by METARs form (0013 UTC 25 November 2017)
found at http://www.aviationweather.gov/adds/metars/
 
KPAE 242353Z 13013KT 10SM SCT028 OVC035 09/04 A3005 RMK AO2 SLP176 T00890044 10094 20083 58003
KPAE 242320Z 2500/2524 13016KT P6SM BKN035 OVC050 
     FM250700 16014KT P6SM SCT100 OVC250 
     FM251500 14010KT P6SM BKN120 OVC250
       
KAWO 242356Z AUTO 13013KT 10SM OVC031 09/05 A3005 RMK AO2 RAE28 SLP179 P0000 60002 T00890050 10100 20089 58008
KBFI 242353Z 17009KT 10SM BKN047 OVC055 11/06 A3007 RMK AO2 SLP183 60000 T01060056 10117 20106 55005
KBFI 242320Z 2500/2524 17007KT P6SM OVC045 
     FM251000 15006KT P6SM SCT100 SCT250 
     FM251600 12003KT P6SM BKN120 OVC250 
     FM251900 07004KT P6SM OVC100
       
KRNT 242353Z 12004KT 10SM -RA SCT043 OVC060 11/06 A3007 RMK AO2 RAB18 SLP186 P0000 60000 T01060061 10122 20106 55005
KSEA 242353Z 18006KT 10SM SCT036 OVC050 10/06 A3007 RMK AO2 RAB13E26 SLP189 P0000 60000 T01000056 10111 20100 55004
KSEA 242320Z 2500/2606 17011KT P6SM FEW020 OVC040 
     FM251000 16005KT P6SM SCT100 SCT250 
     FM251600 12006KT P6SM BKN120 OVC200 
     FM251900 04006KT P6SM OVC100 
     FM260100 04006KT P6SM -RA OVC050